< < Back
Terminal Aerodrome Forecast


Current Version              Previous Versions:   1  2  3  4  5  6  7  8  9  

Terminal Aerodrome Forecast

378
FTUS44 KBMX 011751 RRA
TAFANB
TAF
KANB 011751Z 0118/0218 31006KT P6SM SKC
     FM012000 31009KT P6SM FEW050 SCT250
     FM020200 32003KT P6SM FEW250=

Latest METAR

451
SAUS70 KWBC 012200 RRX
MTRANB
METAR KANB 012153Z AUTO 27010KT 10SM FEW085 36/13 A2997 RMK AO2 SLP138
T03560128


USA.gov is the U.S. government's official web portal to all federal, state and local government web resources and services.